Terminal Aerodrome Forecast
Issued by NWS Austin/San Antonio, TX

Home | Current Version | Previous Version | Text Only | Print | Product List | Glossary On
Versions: 1 2 3 4 5 6 7 8 9 10 11 12 13 14 15 16 17 18 19
000
FTUS44 KEWX 161700
TAFSAT
TAF
KSAT 161739Z 1618/1724 16016KT P6SM BKN250
     FM170200 15010KT P6SM SCT045 BKN250
     FM170700 15009KT P6SM OVC017
     FM171000 15007KT 5SM -DZ BR BKN009
     FM171500 13008KT P6SM VCSH BKN020=

USA.gov is the U.S. government's official web portal to all federal, state and local government web resources and services.